Friday, November 28, 2014
01:21 UTC
  |  Log In   |  Register Free
Airport Search:

Indiana County/Jimmy Stewart Fld/ Airport
(KIDI)

Indiana County/Jimmy Stewart Fld/ Airport Diagram
No Airport Diagram Available

FAA data valid effective November 13, 2014 - January 08, 2015 (unless otherwise noted).

 
 
 
 
 
 
 
 
 
 
 
 
 
 

Current Aviation Weather for Indiana County/Jimmy Stewart Fld/ Airport (KIDI)

The most recent METAR observation for KIDI was updated at: 0013
METAR Summary (Translated METAR)
KIDI
272355Z AUTO 31009G18KT 5SM BR SCT023 OVC032 M02/M04 A3016 RMK A01
KJST
272354Z AUTO 29012KT 1 1/4SM -SN BR BKN008 OVC012 M03/M04 A3005 RMK AO2 SLP205 P0000 60002 T10281044 11017 21028 52013
(22.7 nm SE from KIDI)
KLBE
272350Z 29010KT 5SM -SN SCT016 BKN025 M01/M02 A3018
(25.5 nm SW from KIDI)
TAF Summary (Translated TAF)
KJST
(22.7 nm SE from KIDI)
280007Z 2800/2824 29015KT 1 1/2SM -SHSN OVC008 FM280200 29012KT 3SM -SHSN OVC007 FM281500 29012KT P6SM -SHSN OVC025 FM281800 28010KT P6SM BKN050
KLBE
(25.5 nm SW from KIDI)
272205Z 2722/2818 28009KT 3SM -SHSN BR OVC010 TEMPO 2722/2723 1SM -SHSN BKN015 FM272330 30008KT P6SM -SHSN OVC030 FM280800 32007KT P6SM OVC035 FM281600 25006KT P6SM BKN050
  Airport Weather Conditions for KIDI

 Current Weather at IDI
28° F
Overcast
Northwest winds at 8.1 mph
IDI NOAA Radar

Pressure: 30.17 in
Humidity: 86%
Wind: from the Northwest at 8.1 gusting to 15.0 MPH (7 gusting to 13 KT)
Dew Point: 24.8°F
Visibility: 10.00 mi


Airport Weather Forecast for KIDI

Translated METAR and TAF for KIDI
Translated METAR for KIDI (0116 UTC 28 November 2014)
found at http://aviationweather.gov/adds/metars/
 
METAR text: KIDI 280055Z AUTO 30007G13KT 10SM FEW024 BKN031 OVC039 M02/M04 A3017 RMK A01
Conditions at: KIDI (INDIANA/STEWART , PA, US) observed 0055 UTC 28 November 2014
Temperature: -2.0°C (28°F)
Dewpoint: -4.0°C (25°F) [RH = 86%]
Pressure (altimeter): 30.17 inches Hg (1021.8 mb)
Winds: from the WNW (300 degrees) at 8 MPH (7 knots; 3.6 m/s)
gusting to 15 MPH (13 knots; 6.8 m/s)
Visibility: 10 or more miles (16+ km)
Ceiling: 3100 feet AGL
Clouds: few clouds at 2400 feet AGL
broken clouds at 3100 feet AGL
overcast cloud deck at 3900 feet AGL
Weather: automated observation with no human augmentation;
there may or may not be significant weather present at this time
Translated TAF for KIDI

There is no translated TAF available for this airport

Find All Airport Services Find A Hotel Find A Rental Car Find A Golf Course Find A Restaurant $100 Hamburger



FBO's on the Field
FBO Company Facility Photos Services Transportation Aviation Fuel Prices: Prices include tax
Catering Weather Repair Courtesy Rental Type 100LL JetA JetA+ MOGAS 8087
 
Indiana County Jimmy Stewart Airport

Currently rated 5 by 1 person
FS:Phillips 66
Last Updated: Nov-13
Login to update fuel prices
SS:
Contact Indiana County Jimmy Stewart AirportMore FBO Information
 
Add another FBO Facility Photos Catering Weather Repair Courtesy Rental Type 100LL JetA JetA+ MOGAS 8087
Services Transportation Aviation Fuel Prices: Prices include tax


model-print
model-print
model-print
model-print